Airfield :
LOGIN :

Register | Disclaimer

   EN    FR    IT 

 










Legend :    VFR   Marginal VFR   IFR   Intensive IFR   Very Intensive IFR
Visi :
Ceiling :
>= 8 km
>= 3000ft
5 to 8 km
1000 to 3000 ft
1500m to 5 km
500 to 1000 ft
800 to 1500m
200 to 500 ft
< 800m
< 200 ft
Symbols :   Thunderstorms  Fog  Heavy snow  Heavy precipitations  Wind > 20 kt
SIGMETs :     Misc.  Thunderstorms  Icing  Turbulence  Mountain Waves  Volcanic Ashes






- Airport Elevation : 1411 ft
- IATA code : ZHI


LSZG - Grenchen

CURRENT METAR :
  • 082120Z AUTO 20003KT 1600 -SN SCT003 SCT005 00/00 Q1003

EXPIRED METARs :
  • 082050Z AUTO 28001KT 1200 -SN VV008 00/00 Q1003 REFZDZ
  • 082020Z AUTO 25001KT 1600 -SN BKN003 00/00 Q1003
  • 081950Z AUTO 26002KT 1700 -SN BKN001 OVC002 OVC004 00/00 Q1003
  • 081920Z AUTO 26001KT 1800 -SN SCT003 SCT020 BKN023 00/00 Q1002
  • 081850Z AUTO 22002KT 1800 -SN SCT001 SCT003 BKN015 00/00 Q1002

TAF TAF LSZG
Valid from the 08 at 15:00 until the 09 at 00:00 UTC


081425Z 0815/0824 VRB01KT 9000 -RA SCT004 BKN006
PROB30
TEMPO 0819/0824 1500 SHSN
ATIS : +41 32 396 96 33



MET'MAP, your aeronautical weather chart ! - Copyright ORBIFLY December 2007 - Disclaimer

ORBIFLY MET'MAP TEAM :

Programming & Development : Alexandra Zaïnal
Concept & original design : Baudouin d'Aumeries
Assistance for programming : Marc-Olivier Méhu
Technical & hardware support : Manuel Goepfert

Contact : metmap@orbifly.com




SOURCES & CREDITS :

   NOAA